createdAt,value
2023-02-13T00:01:27.920Z,30.50
2023-02-13T00:04:13.454Z,30.50
2023-02-13T00:06:59.061Z,30.38
2023-02-13T00:09:47.602Z,29.52
2023-02-13T00:12:34.100Z,29.83
2023-02-13T00:15:19.618Z,28.88
2023-02-13T00:18:05.706Z,30.73
2023-02-13T00:21:17.739Z,28.67
2023-02-13T00:24:06.113Z,30.52
2023-02-13T00:26:51.339Z,30.73
2023-02-13T00:29:36.927Z,29.35
2023-02-13T00:32:25.673Z,29.45
2023-02-13T00:35:13.313Z,28.90
2023-02-13T00:37:58.588Z,31.13
2023-02-13T00:40:44.154Z,29.15
2023-02-13T00:43:29.986Z,30.48
2023-02-13T00:46:17.074Z,28.63
2023-02-13T00:49:02.688Z,30.55
2023-02-13T00:51:47.896Z,30.52
2023-02-13T00:54:33.275Z,30.42
2023-02-13T00:57:18.820Z,29.58
2023-02-13T01:00:05.004Z,31.35
2023-02-13T01:02:50.670Z,30.02
2023-02-13T01:05:42.605Z,31.77
2023-02-13T01:08:30.894Z,30.45
2023-02-13T01:11:16.291Z,30.17
2023-02-13T01:14:05.258Z,29.40
2023-02-13T01:16:50.991Z,28.98
2023-02-13T01:19:36.172Z,30.13
2023-02-13T01:22:21.968Z,30.33
2023-02-13T01:25:07.955Z,30.83
2023-02-13T01:27:53.188Z,30.23
2023-02-13T01:30:39.961Z,30.55
2023-02-13T01:33:27.720Z,29.88
2023-02-13T01:36:14.282Z,30.10
2023-02-13T01:39:00.205Z,31.58
2023-02-13T01:41:45.507Z,29.75
2023-02-13T01:45:05.333Z,30.60
2023-02-13T01:48:05.707Z,29.83
2023-02-13T01:50:57.078Z,31.27
2023-02-13T01:54:10.608Z,28.63
2023-02-13T01:57:03.259Z,31.42
2023-02-13T01:59:56.928Z,29.63
2023-02-13T02:02:48.970Z,30.58
2023-02-13T02:05:38.593Z,29.67
2023-02-13T02:08:49.816Z,30.85
2023-02-13T02:11:42.656Z,30.75
2023-02-13T02:14:30.278Z,29.83
2023-02-13T02:17:16.924Z,31.73
2023-02-13T02:20:43.646Z,31.33
2023-02-13T02:23:29.160Z,31.92
2023-02-13T02:26:43.896Z,29.60
2023-02-13T02:29:47.878Z,31.45
2023-02-13T02:32:51.584Z,31.60
2023-02-13T02:36:11.283Z,30.90
2023-02-13T02:39:15.102Z,30.83
2023-02-13T02:42:12.778Z,31.00
2023-02-13T02:45:25.767Z,30.15
2023-02-13T02:48:51.014Z,30.73
2023-02-13T02:52:02.520Z,32.40
2023-02-13T02:55:06.740Z,31.42
2023-02-13T02:58:38.579Z,30.35
2023-02-13T03:01:45.570Z,31.25
2023-02-13T03:04:58.901Z,31.33
2023-02-13T03:07:44.364Z,30.55
2023-02-13T03:10:53.532Z,31.48
2023-02-13T03:13:44.632Z,30.38
2023-02-13T03:16:48.924Z,31.15
2023-02-13T03:20:26.010Z,29.60
2023-02-13T03:23:45.962Z,31.33
2023-02-13T03:27:14.991Z,30.25
2023-02-13T03:30:11.922Z,31.90
2023-02-13T03:33:06.524Z,31.77
2023-02-13T03:36:29.756Z,30.42
2023-02-13T03:39:35.713Z,31.17
2023-02-13T03:42:37.836Z,31.83
2023-02-13T03:45:49.181Z,32.28
2023-02-13T03:48:59.246Z,31.00
2023-02-13T03:52:04.271Z,29.05
2023-02-13T03:55:15.878Z,29.67
2023-02-13T03:58:38.733Z,30.92
2023-02-13T04:01:28.316Z,30.60
2023-02-13T04:04:27.003Z,29.30
2023-02-13T04:07:29.390Z,28.55
2023-02-13T04:10:36.154Z,28.48
2023-02-13T04:13:38.893Z,27.25
2023-02-13T04:16:45.654Z,28.75
2023-02-13T04:19:32.986Z,26.88
2023-02-13T04:22:18.250Z,26.40
2023-02-13T04:25:03.753Z,26.35
2023-02-13T04:27:48.992Z,27.45
2023-02-13T04:30:34.829Z,27.42
2023-02-13T04:33:20.410Z,26.80
2023-02-13T04:36:06.179Z,27.70
2023-02-13T04:38:54.314Z,26.92
2023-02-13T04:41:39.696Z,26.05
2023-02-13T04:44:25.105Z,26.25
2023-02-13T04:47:10.786Z,25.95
2023-02-13T04:49:55.939Z,26.30
2023-02-13T04:52:41.646Z,25.77
2023-02-13T04:55:28.219Z,25.83
2023-02-13T04:58:14.034Z,25.52
2023-02-13T05:00:59.675Z,25.83
2023-02-13T05:03:45.466Z,25.30
2023-02-13T05:06:34.895Z,25.77
2023-02-13T05:09:20.411Z,24.92
2023-02-13T05:12:05.927Z,26.95
2023-02-13T05:14:51.845Z,26.35
2023-02-13T05:17:37.212Z,26.58
2023-02-13T05:20:22.840Z,26.05
2023-02-13T05:23:23.385Z,26.33
2023-02-13T05:26:08.761Z,26.35
2023-02-13T05:29:13.632Z,25.90
2023-02-13T05:32:00.247Z,26.88
2023-02-13T05:34:46.022Z,26.33
2023-02-13T05:37:32.076Z,27.10
2023-02-13T05:40:17.582Z,26.73
2023-02-13T05:43:02.959Z,27.15
2023-02-13T05:45:48.444Z,27.30
2023-02-13T05:48:34.879Z,26.75
2023-02-13T05:51:20.927Z,26.83
2023-02-13T05:54:06.286Z,26.95
2023-02-13T05:56:52.002Z,27.92
2023-02-13T05:59:37.340Z,27.20
2023-02-13T06:02:23.005Z,28.02
2023-02-13T06:05:08.586Z,27.80
2023-02-13T06:07:54.133Z,27.42
2023-02-13T06:10:39.821Z,29.90
2023-02-13T06:13:27.857Z,27.85
2023-02-13T06:16:16.825Z,27.85
2023-02-13T06:19:02.896Z,27.35
2023-02-13T06:21:48.485Z,27.35
2023-02-13T06:24:33.874Z,29.48
2023-02-13T06:27:20.046Z,28.98
2023-02-13T06:30:05.989Z,26.83
2023-02-13T06:32:51.553Z,29.00
2023-02-13T06:35:37.203Z,29.83
2023-02-13T06:38:24.406Z,29.05
2023-02-13T06:41:10.298Z,29.85
2023-02-13T06:44:00.944Z,29.33
2023-02-13T06:46:47.187Z,28.85
2023-02-13T06:49:33.211Z,28.60
2023-02-13T06:52:19.934Z,30.08
2023-02-13T06:55:05.495Z,28.92
2023-02-13T06:57:53.455Z,30.42
2023-02-13T07:00:39.034Z,29.65
2023-02-13T07:03:24.462Z,30.23
2023-02-13T07:06:10.041Z,29.70
2023-02-13T07:08:55.993Z,31.75
2023-02-13T07:11:44.540Z,30.00
2023-02-13T07:14:30.702Z,31.73
2023-02-13T07:17:16.909Z,30.85
2023-02-13T07:20:04.434Z,30.10
2023-02-13T07:22:49.706Z,32.00
2023-02-13T07:25:36.956Z,30.30
2023-02-13T07:28:22.521Z,30.02
2023-02-13T07:31:08.349Z,31.20
2023-02-13T07:33:54.356Z,31.85
2023-02-13T07:36:39.708Z,32.72
2023-02-13T07:39:25.443Z,30.90
2023-02-13T07:42:11.215Z,33.80
2023-02-13T07:44:57.429Z,32.22
2023-02-13T07:47:43.370Z,30.95
2023-02-13T07:50:29.312Z,32.72
2023-02-13T07:53:15.176Z,32.40
2023-02-13T07:56:06.225Z,33.10
2023-02-13T07:58:51.789Z,32.92
2023-02-13T08:01:37.811Z,33.58
2023-02-13T08:04:25.387Z,31.88
2023-02-13T08:07:14.345Z,33.80
2023-02-13T08:10:18.568Z,34.17
2023-02-13T08:13:04.944Z,33.97
2023-02-13T08:15:50.792Z,34.95
2023-02-13T08:18:36.068Z,35.10
2023-02-13T08:21:21.673Z,32.33
2023-02-13T08:24:07.424Z,34.00
2023-02-13T08:26:53.385Z,35.40
2023-02-13T08:29:38.702Z,33.25
2023-02-13T08:32:25.339Z,33.80
2023-02-13T08:35:10.588Z,32.78
2023-02-13T08:37:56.464Z,34.58
2023-02-13T08:40:44.584Z,34.58
2023-02-13T08:43:30.102Z,35.63
2023-02-13T08:46:16.948Z,35.22
2023-02-13T08:49:02.482Z,35.60
2023-02-13T08:51:47.958Z,37.00
2023-02-13T08:54:35.321Z,35.53
2023-02-13T08:57:20.912Z,34.85
2023-02-13T09:00:09.933Z,36.38
2023-02-13T09:02:55.766Z,34.95
2023-02-13T09:05:44.409Z,36.45
2023-02-13T09:08:30.074Z,36.67
2023-02-13T09:11:15.943Z,35.22
2023-02-13T09:14:01.350Z,36.72
2023-02-13T09:16:46.754Z,36.78
2023-02-13T09:19:32.183Z,36.45
2023-02-13T09:22:17.993Z,34.08
2023-02-13T09:25:04.393Z,36.03
2023-02-13T09:27:53.134Z,34.72
2023-02-13T09:30:38.424Z,35.22
2023-02-13T09:33:24.864Z,36.55
2023-02-13T09:36:14.592Z,34.58
2023-02-13T09:39:03.951Z,34.72
2023-02-13T09:41:52.542Z,36.00
2023-02-13T09:44:46.514Z,39.33
2023-02-13T09:47:36.034Z,37.92
2023-02-13T09:50:26.149Z,39.60
2023-02-13T09:53:21.258Z,37.90
2023-02-13T09:56:17.053Z,35.85
2023-02-13T09:59:34.343Z,34.78
2023-02-13T10:02:28.889Z,36.00
2023-02-13T10:05:46.972Z,34.58
2023-02-13T10:08:51.064Z,35.38
2023-02-13T10:12:04.165Z,35.55
2023-02-13T10:15:05.900Z,37.00
2023-02-13T10:17:59.680Z,37.35
2023-02-13T10:21:02.444Z,37.47
2023-02-13T10:23:56.977Z,36.28
2023-02-13T10:26:45.546Z,36.53
2023-02-13T10:30:02.117Z,37.08
2023-02-13T10:33:18.560Z,34.78
2023-02-13T10:36:16.484Z,35.15
2023-02-13T10:39:05.032Z,36.67
2023-02-13T10:42:13.356Z,35.35
2023-02-13T10:45:07.681Z,35.75
2023-02-13T10:48:02.233Z,35.67
2023-02-13T10:51:21.137Z,35.25
2023-02-13T10:54:46.855Z,34.58
2023-02-13T10:57:41.167Z,33.55
2023-02-13T11:00:39.049Z,31.05
2023-02-13T11:03:28.326Z,32.08
2023-02-13T11:06:18.456Z,32.00
2023-02-13T11:09:08.178Z,30.73
2023-02-13T11:11:54.019Z,30.75
2023-02-13T11:14:54.797Z,30.08
2023-02-13T11:17:44.109Z,30.45
2023-02-13T11:20:37.190Z,28.48
2023-02-13T11:23:34.477Z,26.55
2023-02-13T11:26:38.764Z,27.83
2023-02-13T11:29:30.915Z,24.95
2023-02-13T11:32:24.328Z,23.50
2023-02-13T11:35:29.940Z,24.77
2023-02-13T11:41:11.247Z,23.92
2023-02-13T11:44:02.106Z,21.52
2023-02-13T11:46:50.818Z,21.02
2023-02-13T11:49:39.549Z,21.20
2023-02-13T11:52:31.887Z,20.23
2023-02-13T11:55:38.335Z,20.75
2023-02-13T11:58:27.592Z,20.27
2023-02-13T12:01:22.156Z,19.67
2023-02-13T12:04:18.081Z,18.17
2023-02-13T12:07:27.521Z,19.45
2023-02-13T12:10:18.090Z,18.95
2023-02-13T12:13:27.638Z,18.08
2023-02-13T12:16:38.733Z,18.27
2023-02-13T12:19:29.529Z,17.83
2023-02-13T12:22:57.528Z,16.58
2023-02-13T12:25:46.935Z,17.00
2023-02-13T12:31:38.884Z,16.58
2023-02-13T12:34:54.539Z,16.02
2023-02-13T12:37:58.099Z,17.10
2023-02-13T12:41:01.645Z,16.77
2023-02-13T12:44:03.237Z,16.77
2023-02-13T12:47:00.468Z,16.52
2023-02-13T12:50:13.992Z,16.38
2023-02-13T12:53:04.955Z,15.68
2023-02-13T12:55:50.407Z,16.27
2023-02-13T12:59:04.183Z,16.83
2023-02-13T13:01:49.796Z,16.30
2023-02-13T13:05:06.371Z,15.48
2023-02-13T13:08:02.202Z,15.05
2023-02-13T13:11:23.285Z,15.32
2023-02-13T13:14:14.513Z,16.25
2023-02-13T13:17:18.248Z,16.02
2023-02-13T13:20:14.406Z,14.82
2023-02-13T13:23:13.138Z,16.60
2023-02-13T13:26:10.825Z,15.70
2023-02-13T13:29:00.024Z,15.90
2023-02-13T13:32:07.323Z,15.98
2023-02-13T13:34:53.469Z,15.73
2023-02-13T13:38:02.769Z,15.05
2023-02-13T13:41:05.149Z,15.60
2023-02-13T13:44:15.504Z,14.63
2023-02-13T13:47:16.857Z,14.98
2023-02-13T13:50:06.457Z,14.18
2023-02-13T13:53:19.900Z,15.63
2023-02-13T13:56:07.960Z,14.95
2023-02-13T13:58:54.754Z,14.50
2023-02-13T14:01:40.511Z,14.73
2023-02-13T14:04:43.747Z,14.55
2023-02-13T14:07:41.512Z,14.10
2023-02-13T14:10:29.411Z,14.23
2023-02-13T14:13:39.461Z,15.20
2023-02-13T14:16:45.533Z,15.77
2023-02-13T14:19:42.683Z,15.43
2023-02-13T14:22:38.433Z,15.65
2023-02-13T14:25:28.795Z,15.25
2023-02-13T14:28:24.818Z,16.17
2023-02-13T14:31:25.367Z,16.33
2023-02-13T14:34:18.319Z,15.88
2023-02-13T14:37:06.709Z,16.08
2023-02-13T14:40:32.199Z,15.23
2023-02-13T14:43:22.474Z,15.10
2023-02-13T14:46:09.553Z,15.32
2023-02-13T14:49:02.722Z,16.35
2023-02-13T14:51:54.373Z,15.45
2023-02-13T14:54:52.705Z,15.32
2023-02-13T14:57:59.480Z,15.13
2023-02-13T15:00:53.437Z,15.55
2023-02-13T15:03:49.818Z,14.73
2023-02-13T15:06:40.735Z,16.17
2023-02-13T15:09:40.529Z,15.38
2023-02-13T15:12:32.267Z,15.57
2023-02-13T15:15:26.983Z,15.32
2023-02-13T15:18:25.095Z,15.50
2023-02-13T15:21:27.043Z,15.25
2023-02-13T15:24:15.036Z,14.75
2023-02-13T15:27:06.352Z,15.32
2023-02-13T15:30:18.060Z,15.07
2023-02-13T15:33:17.393Z,16.23
2023-02-13T15:36:06.338Z,15.80
2023-02-13T15:39:09.832Z,15.55
2023-02-13T15:42:01.550Z,16.60
2023-02-13T15:45:01.695Z,16.95
2023-02-13T15:47:51.099Z,16.67
2023-02-13T15:50:36.646Z,16.35
2023-02-13T15:53:23.746Z,15.70
2023-02-13T15:56:17.356Z,16.42
2023-02-13T15:59:03.629Z,15.25
2023-02-13T16:01:51.806Z,16.83
2023-02-13T16:04:38.095Z,16.23
2023-02-13T16:07:24.051Z,16.20
2023-02-13T16:10:35.372Z,17.25
2023-02-13T16:13:24.237Z,17.63
2023-02-13T16:16:12.825Z,17.02
2023-02-13T16:18:58.248Z,17.95
2023-02-13T16:21:43.795Z,16.98
2023-02-13T16:24:29.462Z,18.48
2023-02-13T16:27:16.241Z,20.27
2023-02-13T16:30:09.661Z,20.30
2023-02-13T16:33:16.950Z,22.15
2023-02-13T16:36:11.210Z,22.30
2023-02-13T16:39:11.544Z,21.02
2023-02-13T16:42:01.915Z,21.50
2023-02-13T16:45:23.324Z,21.48
2023-02-13T16:48:15.710Z,21.98
2023-02-13T16:51:01.307Z,20.98
2023-02-13T16:53:46.946Z,21.63
2023-02-13T16:56:46.564Z,22.02
2023-02-13T16:59:47.330Z,20.95
2023-02-13T17:02:38.872Z,22.15
2023-02-13T17:05:30.623Z,23.25
2023-02-13T17:08:15.823Z,23.48
2023-02-13T17:11:07.780Z,24.30
2023-02-13T17:13:53.045Z,25.38
2023-02-13T17:16:38.716Z,23.92
2023-02-13T17:19:24.316Z,23.52
2023-02-13T17:22:21.877Z,24.63
2023-02-13T17:25:18.098Z,23.92
2023-02-13T17:28:14.797Z,24.90
2023-02-13T17:31:00.777Z,23.55
2023-02-13T17:33:46.541Z,23.50
2023-02-13T17:36:31.955Z,24.48
2023-02-13T17:39:17.714Z,25.20
2023-02-13T17:42:03.159Z,25.70
2023-02-13T17:44:52.189Z,26.77
2023-02-13T17:47:37.878Z,26.63
2023-02-13T17:50:25.083Z,26.88
2023-02-13T17:53:32.735Z,27.65
2023-02-13T17:56:20.677Z,28.13
2023-02-13T17:59:06.071Z,27.13
2023-02-13T18:01:52.518Z,27.17
2023-02-13T18:04:42.160Z,27.65
2023-02-13T18:07:27.332Z,28.83
2023-02-13T18:10:25.864Z,27.77
2023-02-13T18:13:11.480Z,28.73
2023-02-13T18:15:56.828Z,29.13
2023-02-13T18:18:43.867Z,28.65
2023-02-13T18:21:29.550Z,29.27
2023-02-13T18:24:17.739Z,30.67
2023-02-13T18:27:03.661Z,30.65
2023-02-13T18:29:49.219Z,30.27
2023-02-13T18:32:41.338Z,30.20
2023-02-13T18:35:27.424Z,32.88
2023-02-13T18:38:12.787Z,31.52
2023-02-13T18:40:58.603Z,30.92
2023-02-13T18:43:47.629Z,31.58
2023-02-13T18:46:33.505Z,32.78
2023-02-13T18:49:19.194Z,31.65
2023-02-13T18:52:04.964Z,32.47
2023-02-13T18:54:51.231Z,33.35
2023-02-13T18:57:36.983Z,34.95
2023-02-13T19:00:23.526Z,36.63
2023-02-13T19:03:08.735Z,36.55
2023-02-13T19:05:57.371Z,37.17
2023-02-13T19:08:43.052Z,38.63
2023-02-13T19:11:28.849Z,38.75
2023-02-13T19:14:21.915Z,37.60
2023-02-13T19:17:08.588Z,36.72
2023-02-13T19:19:55.599Z,37.97
2023-02-13T19:22:40.732Z,38.50
2023-02-13T19:25:26.276Z,39.72
2023-02-13T19:28:32.383Z,38.63
2023-02-13T19:31:21.575Z,39.90
2023-02-13T19:34:07.261Z,38.03
2023-02-13T19:36:52.639Z,39.25
2023-02-13T19:39:38.355Z,39.03
2023-02-13T19:42:26.363Z,38.97
2023-02-13T19:45:11.691Z,40.80
2023-02-13T19:47:57.274Z,40.55
2023-02-13T19:50:42.881Z,38.15
2023-02-13T19:53:28.347Z,37.35
2023-02-13T19:56:14.380Z,38.50
2023-02-13T19:58:59.707Z,37.22
2023-02-13T20:01:45.978Z,39.05
2023-02-13T20:04:32.325Z,38.40
2023-02-13T20:07:17.865Z,37.85
2023-02-13T20:10:04.475Z,40.05
2023-02-13T20:12:53.720Z,39.08
2023-02-13T20:15:40.315Z,39.38
2023-02-13T20:18:28.414Z,39.72
2023-02-13T20:21:15.411Z,41.92
2023-02-13T20:24:01.634Z,41.00
2023-02-13T20:26:46.856Z,41.53
2023-02-13T20:29:33.862Z,39.28
2023-02-13T20:32:20.381Z,41.33
2023-02-13T20:35:12.309Z,41.10
2023-02-13T20:37:59.135Z,41.13
2023-02-13T20:40:44.600Z,42.67
2023-02-13T20:43:32.646Z,41.45
2023-02-13T20:46:18.512Z,41.75
2023-02-13T20:49:07.420Z,43.28
2023-02-13T20:51:53.443Z,44.15
2023-02-13T20:54:39.330Z,41.80
2023-02-13T20:57:24.906Z,43.03
2023-02-13T21:00:13.409Z,43.28
2023-02-13T21:03:01.166Z,42.78
2023-02-13T21:05:46.334Z,41.50
2023-02-13T21:08:31.699Z,45.75
2023-02-13T21:11:18.419Z,44.10
2023-02-13T21:14:04.136Z,44.55
2023-02-13T21:16:50.002Z,45.30
2023-02-13T21:19:35.898Z,44.08
2023-02-13T21:22:21.530Z,45.05
2023-02-13T21:25:07.288Z,44.58
2023-02-13T21:27:52.955Z,43.55
2023-02-13T21:30:38.956Z,42.33
2023-02-13T21:33:24.591Z,44.60
2023-02-13T21:36:12.397Z,46.38
2023-02-13T21:38:58.352Z,46.08
2023-02-13T21:41:45.849Z,48.03
2023-02-13T21:44:37.593Z,49.15
2023-02-13T21:47:23.055Z,49.90
2023-02-13T21:50:11.182Z,48.78
2023-02-13T21:52:56.550Z,51.40
2023-02-13T21:55:42.387Z,51.92
2023-02-13T21:58:27.698Z,52.67
2023-02-13T22:01:26.069Z,50.40
2023-02-13T22:04:12.831Z,49.40
2023-02-13T22:06:58.567Z,50.00
2023-02-13T22:09:44.131Z,50.92
2023-02-13T22:12:30.326Z,50.53
2023-02-13T22:15:15.916Z,52.55
2023-02-13T22:18:04.550Z,52.22
2023-02-13T22:20:51.325Z,52.50
2023-02-13T22:23:37.411Z,52.72
2023-02-13T22:26:31.488Z,51.85
2023-02-13T22:29:19.639Z,55.13
2023-02-13T22:32:15.474Z,52.45
2023-02-13T22:35:03.552Z,53.83
2023-02-13T22:37:49.183Z,55.17
2023-02-13T22:40:36.045Z,54.90
2023-02-13T22:43:21.663Z,53.55
2023-02-13T22:46:13.066Z,54.70
2023-02-13T22:48:59.041Z,56.17
2023-02-13T22:51:44.643Z,57.85
2023-02-13T22:54:30.135Z,55.58
2023-02-13T22:57:16.628Z,56.15
2023-02-13T23:00:02.680Z,57.45
2023-02-13T23:02:49.111Z,53.72
2023-02-13T23:05:34.738Z,55.25
2023-02-13T23:08:23.077Z,55.92
2023-02-13T23:11:31.113Z,56.08
2023-02-13T23:14:16.808Z,56.78
2023-02-13T23:17:20.597Z,57.28
2023-02-13T23:20:08.128Z,57.88
2023-02-13T23:22:54.068Z,55.00
2023-02-13T23:25:39.483Z,56.63
2023-02-13T23:28:25.400Z,56.88
2023-02-13T23:31:10.971Z,59.33
2023-02-13T23:33:56.632Z,56.40
2023-02-13T23:36:42.132Z,57.45
2023-02-13T23:39:27.864Z,58.65
2023-02-13T23:42:13.529Z,59.88
2023-02-13T23:44:59.133Z,59.95
2023-02-13T23:47:46.833Z,59.28
2023-02-13T23:50:32.592Z,60.53
2023-02-13T23:53:18.143Z,59.90
2023-02-13T23:56:05.181Z,57.70
2023-02-13T23:58:50.873Z,58.45
